< < Back
Terminal Aerodrome Forecast


Current Version              Previous Versions:   1  2  3  4  5  6  7  8  9  

Terminal Aerodrome Forecast

626
FTUS42 KTAE 201100
TAFVLD
TAF
KVLD 201120Z 2012/2112 02008KT P6SM BKN015 OVC025
      TEMPO 2012/2015 OVC010
     FM202100 03007KT P6SM BKN050
     FM210200 05004KT P6SM SKC=

Latest METAR

061
SAUS70 KWBC 202100
MTRVLD
METAR KVLD 202053Z 02008KT 10SM OVC017 17/12 A3012 RMK AO2 SLP207
T01720117 56008


USA.gov is the U.S. government's official web portal to all federal, state and local government web resources and services.